This is the latest recevied weather packets stored in our database for station/object KE6RLG. If no packets are shown the sender has not sent any weather packets the latest 10 day(s).
| Time | Temp. | Humidity | Pressure | Rain* | Wind** | Luminosity | Snow |
|---|---|---|---|---|---|---|---|
| 1777533925 | 12.22° C | 89% | 1014.5 hPa | 0 mm | - | 0 W/m² | - |
| 1777532125 | 12.22° C | 89% | 1014.4 hPa | 0 mm | - | 0 W/m² | - |
| 1777527021 | 13.33° C | 87% | 1015 hPa | 0 mm | - | 0 W/m² | - |
| 1777524619 | 14.44° C | 86% | 1015 hPa | 0 mm | - | 0 W/m² | - |
| 1777520760 | 15° C | 81% | 1014.6 hPa | 0 mm | - | 0 W/m² | - |
| 1777518017 | 16.11° C | 73% | 1014.3 hPa | 0 mm | - | 0 W/m² | - |
| 1777517117 | 16.11° C | 72% | 1014 hPa | 0 mm | - | 2 W/m² | - |
| 1777516817 | 16.11° C | 72% | 1014 hPa | 0 mm | - | 4 W/m² | - |
| 1777516517 | 16.67° C | 72% | 1013.9 hPa | 0 mm | - | 7 W/m² | - |
| 1777515921 | 16.67° C | 70% | 1013.7 hPa | 0 mm | - | 14 W/m² | - |
| 1777515018 | 16.67° C | 69% | 1013.7 hPa | 0 mm | - | 27 W/m² | - |
| 1777514738 | 16.67° C | 69% | 1013.7 hPa | 0 mm | - | 32 W/m² | - |
| 1777513521 | 17.22° C | 67% | 1013.8 hPa | 0 mm | - | 71 W/m² | - |
| 1777512621 | 17.22° C | 67% | 1013.8 hPa | 0 mm | - | 121 W/m² | - |
| 1777510819 | 17.78° C | 68% | 1013.9 hPa | 0 mm | - | 212 W/m² | - |
| 1777509059 | 18.33° C | 67% | 1014.3 hPa | 0 mm | - | 314 W/m² | - |
| 1777502118 | 18.89° C | 68% | 1014.9 hPa | 0 mm | - | 692 W/m² | - |
| 1777501821 | 18.89° C | 68% | 1015 hPa | 0 mm | - | 707 W/m² | - |
| 1777500918 | 18.33° C | 67% | 1015 hPa | 0 mm | - | 748 W/m² | - |
| 1777500318 | 18.89° C | 66% | 1015 hPa | 0 mm | - | 776 W/m² | - |
| 1777498818 | 18.33° C | 66% | 1015.3 hPa | 0 mm | - | 831 W/m² | - |
| 1777497939 | 18.33° C | 66% | 1015.3 hPa | 0 mm | - | 860 W/m² | - |
| 1777497619 | 18.33° C | 68% | 1015.3 hPa | 0 mm | - | 870 W/m² | - |
| 1777495519 | 18.33° C | 66% | 1015.5 hPa | 0 mm | - | 916 W/m² | - |
| 1777494020 | 18.89° C | 64% | 1015.8 hPa | 0 mm | - | 936 W/m² | - |
* Rain latest hour (hover to see other rain measurements)
** Current wind speed in m/s (hover to see current wind gust speed)